Harvey Supporter — WDF9689 — position and weather

sailwx.info

Track history (hours):
 
Tides and Currents Weather Stations Pressure Air Temp Water Temp Dewpoint Dewpoint Depression Visibility Wind Speed Wind Dir Waves Ship Positions

Harvey Supporter

Owner: Harvey Supporter, LLC, New Orleans, LA. More information available from US FCC via Universal Licensing System and Coast Guard Vessel Documentation Center.

Last reported at 2017-Dec-31 01:01 UTC. Time now 2018-Jan-22 22:23 UTC.
Position N 27°55' W 091°52'.
Warning: this ship's position is 22 days out of date.

Length 89 m; draft 4.6 m.

Type: Cargo ship. MMSI: 367507790.

Date/timePositionNaut miles runAvg speedWind from/ knotsBaromVisibWave heightAir tempDewpointWater temp
2017-Dec-31 01:01N 27°55' W 091°52'010.6
2017-Dec-31 00:59N 27°55' W 091°53'510.8
2017-Dec-31 00:30N 27°52' W 091°58'2 3.1
2017-Dec-31 00:01N 27°52' W 091°60'0 0.1
2017-Dec-30 22:40N 27°52' W 091°59'0 1.3
2017-Dec-30 22:29N 27°52' W 091°59'  
2017-Dec-26 05:43N 27°51' W 091°60'0 0.0
2017-Dec-26 05:28N 27°51' W 091°60'0 0.0
2017-Dec-26 04:57N 27°51' W 091°60'0 0.0
2017-Dec-26 04:30N 27°51' W 091°60'0 0.0
2017-Dec-26 04:00N 27°51' W 091°60'  
2017-Dec-21 08:26N 29°08' W 090°12'0 0.0
2017-Dec-21 07:50N 29°08' W 090°12'0 0.0
2017-Dec-21 07:26N 29°08' W 090°12'0 0.0
2017-Dec-21 06:59N 29°08' W 090°12'0 0.0
2017-Dec-21 06:23N 29°08' W 090°12'0 0.0
2017-Dec-21 05:56N 29°08' W 090°12'0 0.0
2017-Dec-21 05:29N 29°08' W 090°12'0 0.0
2017-Dec-21 04:56N 29°08' W 090°12'0 0.0
2017-Dec-21 04:26N 29°08' W 090°12'0 0.0
2017-Dec-21 03:56N 29°08' W 090°12'0 0.0
2017-Dec-21 03:26N 29°08' W 090°12'0 0.0
2017-Dec-21 02:02N 29°08' W 090°12'0 0.1
2017-Dec-21 01:56N 29°08' W 090°12'0 0.0
2017-Dec-21 01:26N 29°08' W 090°12'  
Track history (hours):
 
Tides and Currents Weather Stations Pressure Air Temp Water Temp Dewpoint Dewpoint Depression Visibility Wind Speed Wind Dir Waves Ship Positions

Harvey Supporter

Owner: Harvey Supporter, LLC, New Orleans, LA. More information available from US FCC via Universal Licensing System and Coast Guard Vessel Documentation Center.

Last reported at 2017-Dec-31 01:01 UTC. Time now 2018-Jan-22 22:23 UTC.
Position N 27°55' W 091°52'.
Warning: this ship's position is 22 days out of date.

Length 89 m; draft 4.6 m.

Type: Cargo ship. MMSI: 367507790.

Date/timePositionNaut miles runAvg speedWind from/ knotsBaromVisibWave heightAir tempDewpointWater temp
2017-Dec-31 01:01N 27°55' W 091°52'010.6
2017-Dec-31 00:59N 27°55' W 091°53'510.8
2017-Dec-31 00:30N 27°52' W 091°58'2 3.1
2017-Dec-31 00:01N 27°52' W 091°60'0 0.1
2017-Dec-30 22:40N 27°52' W 091°59'0 1.3
2017-Dec-30 22:29N 27°52' W 091°59'  
2017-Dec-26 05:43N 27°51' W 091°60'0 0.0
2017-Dec-26 05:28N 27°51' W 091°60'0 0.0
2017-Dec-26 04:57N 27°51' W 091°60'0 0.0
2017-Dec-26 04:30N 27°51' W 091°60'0 0.0
2017-Dec-26 04:00N 27°51' W 091°60'  
2017-Dec-21 08:26N 29°08' W 090°12'0 0.0
2017-Dec-21 07:50N 29°08' W 090°12'0 0.0
2017-Dec-21 07:26N 29°08' W 090°12'0 0.0
2017-Dec-21 06:59N 29°08' W 090°12'0 0.0
2017-Dec-21 06:23N 29°08' W 090°12'0 0.0
2017-Dec-21 05:56N 29°08' W 090°12'0 0.0
2017-Dec-21 05:29N 29°08' W 090°12'0 0.0
2017-Dec-21 04:56N 29°08' W 090°12'0 0.0
2017-Dec-21 04:26N 29°08' W 090°12'0 0.0
2017-Dec-21 03:56N 29°08' W 090°12'0 0.0
2017-Dec-21 03:26N 29°08' W 090°12'0 0.0
2017-Dec-21 02:02N 29°08' W 090°12'0 0.1
2017-Dec-21 01:56N 29°08' W 090°12'0 0.0
2017-Dec-21 01:26N 29°08' W 090°12'  

Dump ship's entire track history